Golden Valley, Arizona
Current Conditions -  °F | °C
As of 2:51 PM on Wednesday 22 Oct 2014 (Local Time) from KIGM Reporting Station
Clear Clear  
Wind Chill: 80°   Ceiling: Unl
Heat Index: 80°   Visibility: 10mi
Dew Point: 34°   Wind: 9mph
Humidity: 19%   Direction: 240°WSW
Pressure: 30.06"   Gusts: NA
Location:  35.22°N, 114.22°W
Report Text: KIGM 222151Z AUTO 24008KT 10SM CLR 27/01 A3006 RMK AO2 SLP121 T02670011
Loading
Personal Weather Stations






























Interactive Weather Map New forecast layout! Learn more

10-Day Weather Forecast

Advertisements
Track Severe Weather on mobile